createdAt,value
2022-09-20T00:01:23.983Z,49.18
2022-09-20T00:03:53.310Z,49.44
2022-09-20T00:06:22.278Z,49.38
2022-09-20T00:08:48.977Z,49.56
2022-09-20T00:11:18.510Z,49.75
2022-09-20T00:13:46.477Z,49.62
2022-09-20T00:16:16.514Z,49.55
2022-09-20T00:18:43.074Z,49.44
2022-09-20T00:21:18.000Z,49.81
2022-09-20T00:23:44.945Z,49.56
2022-09-20T00:26:11.536Z,49.61
2022-09-20T00:28:37.848Z,49.78
2022-09-20T00:31:04.817Z,49.57
2022-09-20T00:33:49.758Z,49.64
2022-09-20T00:36:16.255Z,50.05
2022-09-20T00:38:42.589Z,49.61
2022-09-20T00:41:09.129Z,49.82
2022-09-20T00:43:38.179Z,49.84
2022-09-20T00:46:06.308Z,49.82
2022-09-20T00:48:33.657Z,49.91
2022-09-20T00:51:07.119Z,49.93
2022-09-20T00:53:45.030Z,49.79
2022-09-20T00:56:21.939Z,50.09
2022-09-20T00:59:12.073Z,50.24
2022-09-20T01:01:38.707Z,49.72
2022-09-20T01:04:05.327Z,50.15
2022-09-20T01:06:33.521Z,50.32
2022-09-20T01:09:02.922Z,50.36
2022-09-20T01:11:30.720Z,50.29
2022-09-20T01:13:57.556Z,50.19
2022-09-20T01:16:25.980Z,49.98
2022-09-20T01:18:52.953Z,50.35
2022-09-20T01:21:20.404Z,50.17
2022-09-20T01:24:05.067Z,50.80
2022-09-20T01:26:49.361Z,50.40
2022-09-20T01:29:49.929Z,50.64
2022-09-20T01:32:22.262Z,50.93
2022-09-20T01:34:54.631Z,50.54
2022-09-20T01:37:27.357Z,51.02
2022-09-20T01:40:12.964Z,51.17
2022-09-20T01:42:49.802Z,50.95
2022-09-20T01:45:28.532Z,51.01
2022-09-20T01:48:22.704Z,51.23
2022-09-20T01:51:21.402Z,50.95
2022-09-20T01:54:15.022Z,51.04
2022-09-20T01:57:11.771Z,51.06
2022-09-20T01:59:54.641Z,51.12
2022-09-20T02:02:41.274Z,51.07
2022-09-20T02:05:18.826Z,50.90
2022-09-20T02:08:03.652Z,50.80
2022-09-20T02:10:38.929Z,50.89
2022-09-20T02:13:29.468Z,50.87
2022-09-20T02:16:21.423Z,51.08
2022-09-20T02:18:57.069Z,51.06
2022-09-20T02:21:38.215Z,50.73
2022-09-20T02:24:37.207Z,50.96
2022-09-20T02:27:22.595Z,50.82
2022-09-20T02:30:03.371Z,50.75
2022-09-20T02:32:41.590Z,51.31
2022-09-20T02:35:20.016Z,51.20
2022-09-20T02:38:15.592Z,51.28
2022-09-20T02:40:56.669Z,50.91
2022-09-20T02:43:41.418Z,51.12
2022-09-20T02:46:22.408Z,51.01
2022-09-20T02:48:55.868Z,50.87
2022-09-20T02:51:27.497Z,50.75
2022-09-20T02:54:26.838Z,51.40
2022-09-20T02:57:03.497Z,50.87
2022-09-20T02:59:40.439Z,50.94
2022-09-20T03:02:06.934Z,50.73
2022-09-20T03:05:12.905Z,50.99
2022-09-20T03:07:51.112Z,50.84
2022-09-20T03:10:33.030Z,50.77
2022-09-20T03:13:17.601Z,50.83
2022-09-20T03:15:53.809Z,50.80
2022-09-20T03:18:23.952Z,50.74
2022-09-20T03:21:12.264Z,50.76
2022-09-20T03:23:59.585Z,50.50
2022-09-20T03:26:52.247Z,50.72
2022-09-20T03:29:24.632Z,50.47
2022-09-20T03:31:57.983Z,50.88
2022-09-20T03:34:42.635Z,50.81
2022-09-20T03:37:51.219Z,50.75
2022-09-20T03:40:33.778Z,50.74
2022-09-20T03:43:12.309Z,50.96
2022-09-20T03:45:41.567Z,50.70
2022-09-20T03:48:35.538Z,51.13
2022-09-20T03:51:04.654Z,50.88
2022-09-20T03:54:02.725Z,51.12
2022-09-20T03:56:55.447Z,51.34
2022-09-20T03:59:46.631Z,50.94
2022-09-20T04:02:29.068Z,51.33
2022-09-20T04:05:03.435Z,51.17
2022-09-20T04:07:46.598Z,51.49
2022-09-20T04:10:41.508Z,51.44
2022-09-20T04:13:15.326Z,51.10
2022-09-20T04:16:07.686Z,51.53
2022-09-20T04:18:52.982Z,51.33
2022-09-20T04:21:43.629Z,51.09
2022-09-20T04:24:29.704Z,51.24
2022-09-20T04:27:24.437Z,51.06
2022-09-20T04:30:10.819Z,51.13
2022-09-20T04:33:14.419Z,51.08
2022-09-20T04:36:08.942Z,50.74
2022-09-20T04:38:35.726Z,50.73
2022-09-20T04:41:17.200Z,51.22
2022-09-20T04:44:28.508Z,51.28
2022-09-20T04:47:13.896Z,50.97
2022-09-20T04:50:30.888Z,51.19
2022-09-20T04:53:40.259Z,51.18
2022-09-20T04:56:29.451Z,50.67
2022-09-20T04:59:07.886Z,51.08
2022-09-20T05:02:17.186Z,51.41
2022-09-20T05:05:08.089Z,51.14
2022-09-20T05:07:51.055Z,51.76
2022-09-20T05:10:39.856Z,51.94
2022-09-20T05:13:30.681Z,51.96
2022-09-20T05:16:05.613Z,51.96
2022-09-20T05:18:53.670Z,51.61
2022-09-20T05:21:36.824Z,51.91
2022-09-20T05:24:20.073Z,52.36
2022-09-20T05:27:09.166Z,52.44
2022-09-20T05:30:04.890Z,52.67
2022-09-20T05:32:57.392Z,52.38
2022-09-20T05:35:36.446Z,52.39
2022-09-20T05:38:16.593Z,52.65
2022-09-20T05:41:01.295Z,52.22
2022-09-20T05:43:29.588Z,52.45
2022-09-20T05:46:18.869Z,52.50
2022-09-20T05:49:10.744Z,52.51
2022-09-20T05:52:20.186Z,52.82
2022-09-20T05:54:51.661Z,52.40
2022-09-20T05:57:39.695Z,52.59
2022-09-20T06:00:18.114Z,52.69
2022-09-20T06:02:48.008Z,52.55
2022-09-20T06:05:43.621Z,53.06
2022-09-20T06:08:36.669Z,52.45
2022-09-20T06:11:19.553Z,52.42
2022-09-20T06:14:11.354Z,52.32
2022-09-20T06:16:51.440Z,52.34
2022-09-20T06:19:33.001Z,52.84
2022-09-20T06:22:08.409Z,52.26
2022-09-20T06:25:06.941Z,52.87
2022-09-20T06:27:41.299Z,52.68
2022-09-20T06:30:16.552Z,52.65
2022-09-20T06:32:54.766Z,52.63
2022-09-20T06:35:24.189Z,52.04
2022-09-20T06:38:30.147Z,52.60
2022-09-20T06:41:15.004Z,52.23
2022-09-20T06:43:41.503Z,52.07
2022-09-20T06:46:07.828Z,52.12
2022-09-20T06:48:34.249Z,51.90
2022-09-20T06:51:01.334Z,51.90
2022-09-20T06:53:32.585Z,52.20
2022-09-20T06:56:00.638Z,52.10
2022-09-20T06:58:26.942Z,52.13
2022-09-20T07:00:53.455Z,51.71
2022-09-20T07:03:19.857Z,51.61
2022-09-20T07:05:46.876Z,51.68
2022-09-20T07:08:13.533Z,52.14
2022-09-20T07:10:39.825Z,52.09
2022-09-20T07:13:06.225Z,52.20
2022-09-20T07:15:34.108Z,51.59
2022-09-20T07:18:00.879Z,51.50
2022-09-20T07:20:27.750Z,51.47
2022-09-20T07:22:54.109Z,51.43
2022-09-20T07:25:21.586Z,51.62
2022-09-20T07:27:50.567Z,52.72
2022-09-20T07:30:18.460Z,52.94
2022-09-20T07:32:44.894Z,53.56
2022-09-20T07:35:12.143Z,53.35
2022-09-20T07:37:41.263Z,52.90
2022-09-20T07:40:09.909Z,52.51
2022-09-20T07:42:36.332Z,52.33
2022-09-20T07:45:03.655Z,52.01
2022-09-20T07:47:31.928Z,51.09
2022-09-20T07:49:58.500Z,50.80
2022-09-20T07:52:24.822Z,50.03
2022-09-20T07:54:51.131Z,49.09
2022-09-20T07:57:17.587Z,48.30
2022-09-20T07:59:43.882Z,47.25
2022-09-20T08:02:14.787Z,45.53
2022-09-20T08:04:41.140Z,45.73
2022-09-20T08:07:07.435Z,45.19
2022-09-20T08:09:33.708Z,44.88
2022-09-20T08:14:05.391Z,44.88
2022-09-20T08:14:46.325Z,44.18
2022-09-20T08:17:12.626Z,43.96
2022-09-20T08:19:39.934Z,44.22
2022-09-20T08:22:06.985Z,44.23
2022-09-20T08:24:33.271Z,44.07
2022-09-20T08:26:59.619Z,43.66
2022-09-20T08:29:25.902Z,43.75
2022-09-20T08:31:52.902Z,43.46
2022-09-20T08:34:19.226Z,43.00
2022-09-20T08:36:47.017Z,42.93
2022-09-20T08:42:10.017Z,42.18
2022-09-20T08:44:57.906Z,41.98
2022-09-20T08:47:47.675Z,42.46
2022-09-20T08:50:17.833Z,42.63
2022-09-20T08:52:48.377Z,42.66
2022-09-20T08:55:17.727Z,42.75
2022-09-20T08:57:48.923Z,42.84
2022-09-20T09:00:46.269Z,42.21
2022-09-20T09:03:14.415Z,42.78
2022-09-20T09:05:45.071Z,42.56
2022-09-20T09:08:18.864Z,41.95
2022-09-20T09:10:51.210Z,42.43
2022-09-20T09:13:24.124Z,42.14
2022-09-20T09:16:01.170Z,42.05
2022-09-20T09:18:32.997Z,42.36
2022-09-20T09:21:00.082Z,42.71
2022-09-20T09:23:27.564Z,42.58
2022-09-20T09:25:55.103Z,42.85
2022-09-20T09:28:29.286Z,42.15
2022-09-20T09:31:29.549Z,42.04
2022-09-20T09:33:55.991Z,42.04
2022-09-20T09:36:25.629Z,42.07
2022-09-20T09:39:30.979Z,41.82
2022-09-20T09:42:01.509Z,42.49
2022-09-20T09:44:35.557Z,41.86
2022-09-20T09:47:02.061Z,41.97
2022-09-20T09:49:35.895Z,41.10
2022-09-20T09:52:14.218Z,40.94
2022-09-20T09:54:47.440Z,40.75
2022-09-20T09:57:41.190Z,39.89
2022-09-20T10:00:18.890Z,40.09
2022-09-20T10:02:53.203Z,40.73
2022-09-20T10:05:37.959Z,40.54
2022-09-20T10:08:19.917Z,40.22
2022-09-20T10:10:55.317Z,40.25
2022-09-20T10:13:49.067Z,40.55
2022-09-20T10:16:45.654Z,40.84
2022-09-20T10:19:22.923Z,40.92
2022-09-20T10:21:56.842Z,40.55
2022-09-20T10:24:40.869Z,40.60
2022-09-20T10:27:22.138Z,41.30
2022-09-20T10:30:04.244Z,40.35
2022-09-20T10:32:52.119Z,40.69
2022-09-20T10:35:43.593Z,39.90
2022-09-20T10:38:19.662Z,40.23
2022-09-20T10:41:21.089Z,40.13
2022-09-20T10:44:04.946Z,39.04
2022-09-20T10:47:00.162Z,39.11
2022-09-20T10:50:11.790Z,39.18
2022-09-20T10:52:43.808Z,38.62
2022-09-20T10:55:25.479Z,38.92
2022-09-20T10:58:30.393Z,39.00
2022-09-20T11:01:18.243Z,39.00
2022-09-20T11:04:15.678Z,39.06
2022-09-20T11:07:09.896Z,38.86
2022-09-20T11:09:43.665Z,39.13
2022-09-20T11:12:17.591Z,39.35
2022-09-20T11:15:02.584Z,39.25
2022-09-20T11:18:12.448Z,38.71
2022-09-20T11:20:47.258Z,38.25
2022-09-20T11:23:25.247Z,38.53
2022-09-20T11:26:00.493Z,37.94
2022-09-20T11:28:39.888Z,37.79
2022-09-20T11:31:24.987Z,38.47
2022-09-20T11:33:58.558Z,37.76
2022-09-20T11:36:52.115Z,37.54
2022-09-20T11:39:23.888Z,37.85
2022-09-20T11:41:54.880Z,38.20
2022-09-20T11:44:21.749Z,38.34
2022-09-20T11:46:55.812Z,38.18
2022-09-20T11:49:52.673Z,38.41
2022-09-20T11:52:26.078Z,37.70
2022-09-20T11:55:20.299Z,37.82
2022-09-20T11:57:59.505Z,37.21
2022-09-20T12:00:32.349Z,37.25
2022-09-20T12:03:00.088Z,38.05
2022-09-20T12:05:35.210Z,37.35
2022-09-20T12:08:05.689Z,37.77
2022-09-20T12:10:36.203Z,37.75
2022-09-20T12:13:23.312Z,37.26
2022-09-20T12:16:02.643Z,37.30
2022-09-20T12:18:29.173Z,37.59
2022-09-20T12:20:55.417Z,37.75
2022-09-20T12:23:43.086Z,37.48
2022-09-20T12:26:36.854Z,38.15
2022-09-20T12:29:23.052Z,37.97
2022-09-20T12:31:52.197Z,38.05
2022-09-20T12:34:18.434Z,38.10
2022-09-20T12:36:51.987Z,37.88
2022-09-20T12:39:22.589Z,38.05
2022-09-20T12:42:02.324Z,37.89
2022-09-20T12:44:49.277Z,38.28
2022-09-20T12:47:20.410Z,38.47
2022-09-20T12:50:05.190Z,38.90
2022-09-20T12:52:58.715Z,38.63
2022-09-20T12:56:04.763Z,38.86
2022-09-20T12:58:37.974Z,38.42
2022-09-20T13:01:04.307Z,38.60
2022-09-20T13:03:37.673Z,37.96
2022-09-20T13:06:07.062Z,37.36
2022-09-20T13:09:00.829Z,36.35
2022-09-20T13:11:55.906Z,36.78
2022-09-20T13:14:31.204Z,36.50
2022-09-20T13:17:07.023Z,36.13
2022-09-20T13:19:42.228Z,35.47
2022-09-20T13:22:26.481Z,35.89
2022-09-20T13:24:57.890Z,35.78
2022-09-20T13:27:29.670Z,35.91
2022-09-20T13:30:14.682Z,35.82
2022-09-20T13:32:42.178Z,36.33
2022-09-20T13:35:21.462Z,36.05
2022-09-20T13:37:58.653Z,36.52
2022-09-20T13:40:35.300Z,35.58
2022-09-20T13:43:32.757Z,35.34
2022-09-20T13:46:09.067Z,35.77
2022-09-20T13:48:35.466Z,35.77
2022-09-20T13:51:02.330Z,35.95
2022-09-20T13:53:41.540Z,36.10
2022-09-20T13:56:20.115Z,36.33
2022-09-20T13:58:46.578Z,36.13
2022-09-20T14:01:30.760Z,35.24
2022-09-20T14:04:08.455Z,34.81
2022-09-20T14:06:35.719Z,35.68
2022-09-20T14:09:10.423Z,34.91
2022-09-20T14:11:38.313Z,35.42
2022-09-20T14:14:06.163Z,35.37
2022-09-20T14:16:39.897Z,34.42
2022-09-20T14:19:08.076Z,34.74
2022-09-20T14:21:37.007Z,35.03
2022-09-20T14:24:07.567Z,34.63
2022-09-20T14:26:36.618Z,34.42
2022-09-20T14:29:33.955Z,33.93
2022-09-20T14:32:06.466Z,34.57
2022-09-20T14:34:37.324Z,34.67
2022-09-20T14:37:16.550Z,34.92
2022-09-20T14:39:53.643Z,34.83
2022-09-20T14:42:29.768Z,34.15
2022-09-20T14:44:56.312Z,34.84
2022-09-20T14:47:39.567Z,34.61
2022-09-20T14:50:24.392Z,34.74
2022-09-20T14:53:10.676Z,34.69
2022-09-20T14:55:57.391Z,35.13
2022-09-20T14:58:26.042Z,35.09
2022-09-20T15:00:54.045Z,35.95
2022-09-20T15:03:31.274Z,34.42
2022-09-20T15:05:58.062Z,34.76
2022-09-20T15:08:24.483Z,35.50
2022-09-20T15:10:51.457Z,34.73
2022-09-20T15:13:18.160Z,34.60
2022-09-20T15:15:46.619Z,34.33
2022-09-20T15:18:21.196Z,33.92
2022-09-20T15:20:50.998Z,34.66
2022-09-20T15:23:17.940Z,35.04
2022-09-20T15:25:44.354Z,34.50
2022-09-20T15:28:17.360Z,34.17
2022-09-20T15:30:45.072Z,34.80
2022-09-20T15:33:12.120Z,34.89
2022-09-20T15:35:40.104Z,34.85
2022-09-20T15:38:08.884Z,34.69
2022-09-20T15:40:35.901Z,34.78
2022-09-20T15:43:02.312Z,35.08
2022-09-20T15:45:29.001Z,35.33
2022-09-20T15:47:55.365Z,35.31
2022-09-20T15:50:24.590Z,35.31
2022-09-20T15:52:51.558Z,35.46
2022-09-20T15:55:19.234Z,35.62
2022-09-20T15:57:47.318Z,35.65
2022-09-20T16:00:14.540Z,35.63
2022-09-20T16:02:40.846Z,35.89
2022-09-20T16:05:09.990Z,36.49
2022-09-20T16:07:37.016Z,37.15
2022-09-20T16:10:03.396Z,37.47
2022-09-20T16:12:29.672Z,37.54
2022-09-20T16:14:55.956Z,37.87
2022-09-20T16:17:42.217Z,38.06
2022-09-20T16:20:09.028Z,38.57
2022-09-20T16:22:35.354Z,39.21
2022-09-20T16:25:01.693Z,39.64
2022-09-20T16:27:27.987Z,40.06
2022-09-20T16:29:54.425Z,40.97
2022-09-20T16:32:20.728Z,41.34
2022-09-20T16:34:47.032Z,41.68
2022-09-20T16:37:16.922Z,42.29
2022-09-20T16:39:44.207Z,42.83
2022-09-20T16:42:12.284Z,43.57
2022-09-20T16:44:41.959Z,43.90
2022-09-20T16:47:11.832Z,44.48
2022-09-20T16:49:38.551Z,43.42
2022-09-20T16:52:05.619Z,43.76
2022-09-20T16:54:32.260Z,44.04
2022-09-20T16:56:58.633Z,44.05
2022-09-20T16:59:25.055Z,44.32
2022-09-20T17:01:51.606Z,44.24
2022-09-20T17:04:20.104Z,44.32
2022-09-20T17:06:47.322Z,44.97
2022-09-20T17:09:15.380Z,44.22
2022-09-20T17:11:52.552Z,44.54
2022-09-20T17:14:20.392Z,44.54
2022-09-20T17:16:48.020Z,44.18
2022-09-20T17:19:16.838Z,44.66
2022-09-20T17:21:46.120Z,45.18
2022-09-20T17:24:14.049Z,44.73
2022-09-20T17:26:44.537Z,45.26
2022-09-20T17:29:16.912Z,45.51
2022-09-20T17:31:50.103Z,45.22
2022-09-20T17:34:21.646Z,45.30
2022-09-20T17:36:48.569Z,45.62
2022-09-20T17:39:15.975Z,45.67
2022-09-20T17:41:44.922Z,46.21
2022-09-20T17:44:12.075Z,45.99
2022-09-20T17:46:43.726Z,47.20
2022-09-20T17:49:15.010Z,46.59
2022-09-20T17:51:43.591Z,46.21
2022-09-20T17:54:13.480Z,47.03
2022-09-20T17:56:46.130Z,46.72
2022-09-20T17:59:17.375Z,46.18
2022-09-20T18:01:45.525Z,46.60
2022-09-20T18:04:12.114Z,46.71
2022-09-20T18:06:45.956Z,47.84
2022-09-20T18:09:15.808Z,47.57
2022-09-20T18:11:46.242Z,47.57
2022-09-20T18:14:15.398Z,47.60
2022-09-20T18:16:44.092Z,47.48
2022-09-20T18:19:11.136Z,47.64
2022-09-20T18:21:40.700Z,47.93
2022-09-20T18:24:08.809Z,48.01
2022-09-20T18:26:36.225Z,47.74
2022-09-20T18:29:06.781Z,47.92
2022-09-20T18:31:42.816Z,48.52
2022-09-20T18:34:23.826Z,49.15
2022-09-20T18:36:55.557Z,49.13
2022-09-20T18:39:32.294Z,48.64
2022-09-20T18:41:59.147Z,48.33
2022-09-20T18:44:27.549Z,48.18
2022-09-20T18:46:54.902Z,48.27
2022-09-20T18:49:21.801Z,48.41
2022-09-20T18:51:48.459Z,48.87
2022-09-20T18:54:15.506Z,48.38
2022-09-20T18:56:46.616Z,48.52
2022-09-20T18:59:19.422Z,49.29
2022-09-20T19:01:55.316Z,49.44
2022-09-20T19:04:43.270Z,49.97
2022-09-20T19:07:18.635Z,49.19
2022-09-20T19:10:03.581Z,48.43
2022-09-20T19:12:48.337Z,50.11
2022-09-20T19:15:53.100Z,49.82
2022-09-20T19:18:24.053Z,49.33
2022-09-20T19:21:05.680Z,48.81
2022-09-20T19:23:46.927Z,50.05
2022-09-20T19:26:23.954Z,49.21
2022-09-20T19:28:52.817Z,49.09
2022-09-20T19:31:23.066Z,49.66
2022-09-20T19:33:50.222Z,49.18
2022-09-20T19:36:17.146Z,48.92
2022-09-20T19:38:53.611Z,50.33
2022-09-20T19:41:53.550Z,50.94
2022-09-20T19:45:03.632Z,50.47
2022-09-20T19:47:48.444Z,51.09
2022-09-20T19:50:27.670Z,49.97
2022-09-20T19:52:57.819Z,49.99
2022-09-20T19:55:24.670Z,50.05
2022-09-20T19:57:51.389Z,49.77
2022-09-20T20:00:20.396Z,50.75
2022-09-20T20:02:47.961Z,50.31
2022-09-20T20:05:20.331Z,50.86
2022-09-20T20:07:51.213Z,51.33
2022-09-20T20:10:22.065Z,51.30
2022-09-20T20:13:00.495Z,51.84
2022-09-20T20:15:42.102Z,51.62
2022-09-20T20:18:26.120Z,51.84
2022-09-20T20:20:54.936Z,50.85
2022-09-20T20:23:41.571Z,51.86
2022-09-20T20:26:23.791Z,51.36
2022-09-20T20:28:51.922Z,50.66
2022-09-20T20:31:19.543Z,50.68
2022-09-20T20:33:45.854Z,50.62
2022-09-20T20:36:12.313Z,50.65
2022-09-20T20:38:40.742Z,50.80
2022-09-20T20:41:10.206Z,51.18
2022-09-20T20:43:39.158Z,50.93
2022-09-20T20:46:07.632Z,51.14
2022-09-20T20:48:34.654Z,50.38
2022-09-20T20:51:03.068Z,50.52
2022-09-20T20:53:31.740Z,50.61
2022-09-20T20:56:01.769Z,51.05
2022-09-20T20:58:35.276Z,50.54
2022-09-20T21:01:22.513Z,51.31
2022-09-20T21:03:50.615Z,50.38
2022-09-20T21:06:17.319Z,50.12
2022-09-20T21:08:49.084Z,50.17
2022-09-20T21:11:23.301Z,50.89
2022-09-20T21:13:54.527Z,50.40
2022-09-20T21:16:23.637Z,50.79
2022-09-20T21:18:50.908Z,50.56
2022-09-20T21:21:22.697Z,50.78
2022-09-20T21:23:51.496Z,50.58
2022-09-20T21:26:19.306Z,50.61
2022-09-20T21:28:51.319Z,51.16
2022-09-20T21:31:19.312Z,50.62
2022-09-20T21:33:45.657Z,50.66
2022-09-20T21:36:14.270Z,50.78
2022-09-20T21:38:41.438Z,51.26
2022-09-20T21:41:11.158Z,50.01
2022-09-20T21:43:42.633Z,50.14
2022-09-20T21:46:19.968Z,50.94
2022-09-20T21:48:48.107Z,50.12
2022-09-20T21:51:20.268Z,50.96
2022-09-20T21:53:48.135Z,50.22
2022-09-20T21:56:17.357Z,50.60
2022-09-20T21:58:45.887Z,50.54
2022-09-20T22:01:14.930Z,50.34
2022-09-20T22:03:46.255Z,50.59
2022-09-20T22:06:17.234Z,50.91
2022-09-20T22:08:58.352Z,50.94
2022-09-20T22:11:31.009Z,50.67
2022-09-20T22:13:58.914Z,50.18
2022-09-20T22:16:28.905Z,50.26
2022-09-20T22:18:55.820Z,50.70
2022-09-20T22:21:27.950Z,51.24
2022-09-20T22:23:59.395Z,50.83
2022-09-20T22:26:28.869Z,50.78
2022-09-20T22:28:55.169Z,50.63
2022-09-20T22:31:27.338Z,50.91
2022-09-20T22:33:56.119Z,50.21
2022-09-20T22:36:27.034Z,51.07
2022-09-20T22:38:54.148Z,50.54
2022-09-20T22:41:20.924Z,50.57
2022-09-20T22:43:48.005Z,50.71
2022-09-20T22:46:20.012Z,50.84
2022-09-20T22:48:46.713Z,50.60
2022-09-20T22:51:14.425Z,50.63
2022-09-20T22:53:41.293Z,50.70
2022-09-20T22:56:21.088Z,51.23
2022-09-20T22:58:49.970Z,50.78
2022-09-20T23:01:20.540Z,50.76
2022-09-20T23:03:52.614Z,50.71
2022-09-20T23:06:22.199Z,51.09
2022-09-20T23:08:49.688Z,50.74
2022-09-20T23:11:17.010Z,50.84
2022-09-20T23:13:44.623Z,50.80
2022-09-20T23:16:21.275Z,51.03
2022-09-20T23:18:49.767Z,50.84
2022-09-20T23:21:17.135Z,50.55
2022-09-20T23:23:44.458Z,50.98
2022-09-20T23:26:14.042Z,50.86
2022-09-20T23:28:42.702Z,51.05
2022-09-20T23:31:10.629Z,51.54
2022-09-20T23:33:37.492Z,50.68
2022-09-20T23:36:08.836Z,50.96
2022-09-20T23:38:38.172Z,51.24
2022-09-20T23:41:07.205Z,50.70
2022-09-20T23:43:35.878Z,50.81
2022-09-20T23:46:03.397Z,50.67
2022-09-20T23:48:29.917Z,50.69
2022-09-20T23:50:56.519Z,50.55
2022-09-20T23:53:23.774Z,50.82
2022-09-20T23:55:50.449Z,50.80
2022-09-20T23:58:17.105Z,50.84
